Terminal Aerodrome Forecast
Issued by NWS

Home | Current Version | Previous Version | Text Only | Print | Product List | Glossary On
Versions: 1 2 3 4 5 6 7 8 9 10 11 12 13 14 15 16 17
000
FTUS41 KGYX 030525
TAFPSM
TAF
KPSM 030525Z 0306/0406 30012G22KT P6SM SKC
     FM030800 29006KT P6SM SKC
     FM031900 17006KT P6SM BKN100
     FM032300 16009KT 3SM -SN BR OVC015=

USA.gov is the U.S. government's official web portal to all federal, state and local government web resources and services.